createdAt,value
2022-08-17T00:01:52.869Z,24.19
2022-08-17T00:04:24.550Z,24.19
2022-08-17T00:06:55.240Z,24.22
2022-08-17T00:09:26.043Z,24.23
2022-08-17T00:12:41.414Z,24.25
2022-08-17T00:14:50.390Z,24.23
2022-08-17T00:17:21.589Z,24.15
2022-08-17T00:19:52.305Z,24.03
2022-08-17T00:22:35.241Z,23.97
2022-08-17T00:25:09.963Z,23.95
2022-08-17T00:27:41.105Z,23.93
2022-08-17T00:30:14.540Z,23.93
2022-08-17T00:33:22.801Z,23.95
2022-08-17T00:35:39.483Z,23.96
2022-08-17T00:38:12.201Z,23.95
2022-08-17T00:40:45.444Z,23.94
2022-08-17T00:43:23.104Z,23.91
2022-08-17T00:45:54.197Z,23.91
2022-08-17T00:48:29.589Z,23.90
2022-08-17T00:51:08.380Z,23.89
2022-08-17T00:53:42.938Z,23.84
2022-08-17T00:56:19.349Z,23.73
2022-08-17T00:58:50.604Z,23.67
2022-08-17T01:01:22.037Z,23.54
2022-08-17T01:03:58.034Z,23.43
2022-08-17T01:06:31.175Z,23.33
2022-08-17T01:09:04.636Z,23.14
2022-08-17T01:11:37.193Z,22.96
2022-08-17T01:14:08.967Z,22.79
2022-08-17T01:16:40.518Z,22.67
2022-08-17T01:19:16.180Z,22.53
2022-08-17T01:21:55.476Z,22.42
2022-08-17T01:24:26.434Z,22.36
2022-08-17T01:26:57.671Z,22.36
2022-08-17T01:29:30.812Z,22.36
2022-08-17T01:32:05.042Z,22.38
2022-08-17T01:34:42.650Z,22.39
2022-08-17T01:37:15.825Z,22.43
2022-08-17T01:39:46.650Z,22.45
2022-08-17T01:42:24.534Z,22.43
2022-08-17T01:44:58.926Z,22.34
2022-08-17T01:47:29.929Z,22.27
2022-08-17T01:50:08.862Z,22.27
2022-08-17T01:52:40.498Z,22.29
2022-08-17T01:55:12.394Z,22.36
2022-08-17T01:57:45.454Z,22.44
2022-08-17T02:00:18.266Z,22.44
2022-08-17T02:02:49.137Z,22.40
2022-08-17T02:05:20.159Z,22.35
2022-08-17T02:08:00.562Z,22.32
2022-08-17T02:10:33.857Z,22.28
2022-08-17T02:13:06.106Z,22.30
2022-08-17T02:15:36.918Z,22.34
2022-08-17T02:18:09.006Z,22.34
2022-08-17T02:20:42.966Z,22.34
2022-08-17T02:23:15.495Z,22.27
2022-08-17T02:25:48.936Z,22.16
2022-08-17T02:28:20.448Z,22.10
2022-08-17T02:31:01.976Z,22.05
2022-08-17T02:33:43.255Z,21.96
2022-08-17T02:36:14.977Z,21.99
2022-08-17T02:38:45.670Z,22.14
2022-08-17T02:41:16.627Z,22.32
2022-08-17T02:43:47.295Z,22.45
2022-08-17T02:46:19.584Z,22.58
2022-08-17T02:48:50.344Z,22.70
2022-08-17T02:51:21.264Z,22.79
2022-08-17T02:53:52.423Z,22.83
2022-08-17T02:56:43.136Z,22.88
2022-08-17T02:59:13.934Z,22.92
2022-08-17T03:01:44.673Z,22.94
2022-08-17T03:04:15.646Z,22.93
2022-08-17T03:06:46.320Z,22.79
2022-08-17T03:09:17.280Z,22.61
2022-08-17T03:11:48.050Z,22.39
2022-08-17T03:14:26.156Z,22.21
2022-08-17T03:16:57.458Z,22.18
2022-08-17T03:19:28.216Z,22.16
2022-08-17T03:22:00.648Z,22.17
2022-08-17T03:24:52.004Z,22.17
2022-08-17T03:27:24.200Z,22.21
2022-08-17T03:29:55.203Z,22.29
2022-08-17T03:32:25.841Z,22.31
2022-08-17T03:35:01.315Z,22.30
2022-08-17T03:37:32.019Z,22.33
2022-08-17T03:40:03.056Z,22.36
2022-08-17T03:42:34.211Z,22.35
2022-08-17T03:45:06.346Z,22.34
2022-08-17T03:47:54.590Z,22.36
2022-08-17T03:50:42.838Z,22.41
2022-08-17T03:53:48.820Z,22.46
2022-08-17T03:56:37.140Z,22.49
2022-08-17T03:59:07.886Z,22.51
2022-08-17T04:01:53.890Z,22.52
2022-08-17T04:04:27.433Z,22.48
2022-08-17T04:06:59.027Z,22.31
2022-08-17T04:09:29.723Z,22.25
2022-08-17T04:12:02.246Z,22.27
2022-08-17T04:14:51.822Z,22.28
2022-08-17T04:17:28.809Z,22.25
2022-08-17T04:19:59.648Z,22.29
2022-08-17T04:22:34.260Z,22.36
2022-08-17T04:25:10.995Z,22.44
2022-08-17T04:27:42.048Z,22.53
2022-08-17T04:30:14.722Z,22.61
2022-08-17T04:33:04.631Z,22.68
2022-08-17T04:35:40.444Z,22.72
2022-08-17T04:38:13.184Z,22.74
2022-08-17T04:41:02.049Z,22.77
2022-08-17T04:43:34.565Z,22.83
2022-08-17T04:46:08.499Z,22.87
2022-08-17T04:48:41.487Z,22.91
2022-08-17T04:51:16.288Z,22.96
2022-08-17T04:53:54.096Z,23.03
2022-08-17T04:56:27.169Z,23.08
2022-08-17T04:58:59.581Z,23.11
2022-08-17T05:01:32.542Z,23.12
2022-08-17T05:04:21.331Z,23.13
2022-08-17T05:06:57.211Z,23.09
2022-08-17T05:09:28.133Z,23.06
2022-08-17T05:12:01.176Z,23.08
2022-08-17T05:14:33.336Z,23.10
2022-08-17T05:17:07.163Z,23.34
2022-08-17T05:19:42.263Z,23.91
2022-08-17T05:22:15.004Z,24.41
2022-08-17T05:24:53.899Z,24.83
2022-08-17T05:27:29.304Z,25.17
2022-08-17T05:30:07.256Z,25.50
2022-08-17T05:32:40.319Z,25.71
2022-08-17T05:35:12.099Z,25.93
2022-08-17T05:37:42.888Z,26.19
2022-08-17T05:40:15.104Z,26.51
2022-08-17T05:42:45.917Z,26.83
2022-08-17T05:45:32.113Z,27.14
2022-08-17T05:48:10.278Z,27.43
2022-08-17T05:50:50.604Z,27.69
2022-08-17T05:53:27.636Z,27.98
2022-08-17T05:56:11.619Z,28.24
2022-08-17T05:59:06.307Z,28.38
2022-08-17T06:01:49.995Z,28.38
2022-08-17T06:04:26.133Z,28.43
2022-08-17T06:07:07.798Z,28.52
2022-08-17T06:09:47.156Z,28.61
2022-08-17T06:12:35.063Z,28.79
2022-08-17T06:15:24.945Z,29.01
2022-08-17T06:17:59.563Z,29.09
2022-08-17T06:20:37.152Z,29.08
2022-08-17T06:23:14.388Z,28.99
2022-08-17T06:25:50.041Z,29.01
2022-08-17T06:28:29.462Z,29.09
2022-08-17T06:31:05.749Z,29.27
2022-08-17T06:33:39.407Z,29.49
2022-08-17T06:36:29.285Z,29.55
2022-08-17T06:39:16.437Z,29.78
2022-08-17T06:41:54.647Z,30.03
2022-08-17T06:44:49.825Z,30.25
2022-08-17T06:47:30.030Z,30.55
2022-08-17T06:50:14.697Z,30.78
2022-08-17T06:52:55.113Z,30.90
2022-08-17T06:55:44.171Z,31.00
2022-08-17T06:58:21.175Z,30.95
2022-08-17T07:00:58.837Z,30.91
2022-08-17T07:03:35.753Z,30.91
2022-08-17T07:06:12.667Z,30.89
2022-08-17T07:08:52.252Z,30.93
2022-08-17T07:11:31.392Z,31.04
2022-08-17T07:14:17.295Z,31.19
2022-08-17T07:16:51.323Z,31.28
2022-08-17T07:19:26.243Z,31.43
2022-08-17T07:22:05.834Z,31.57
2022-08-17T07:24:43.299Z,31.66
2022-08-17T07:27:20.966Z,31.76
2022-08-17T07:29:56.404Z,31.78
2022-08-17T07:32:31.846Z,31.84
2022-08-17T07:35:15.448Z,31.94
2022-08-17T07:37:53.471Z,32.11
2022-08-17T07:40:29.357Z,32.25
2022-08-17T07:43:22.265Z,32.38
2022-08-17T07:46:49.346Z,32.49
2022-08-17T07:49:23.790Z,32.49
2022-08-17T07:52:13.530Z,32.53
2022-08-17T07:54:52.758Z,32.64
2022-08-17T07:57:43.280Z,32.68
2022-08-17T08:00:31.702Z,32.72
2022-08-17T08:03:23.721Z,32.77
2022-08-17T08:06:02.139Z,32.77
2022-08-17T08:08:38.735Z,32.78
2022-08-17T08:11:15.543Z,32.70
2022-08-17T08:13:49.844Z,32.58
2022-08-17T08:16:29.523Z,32.57
2022-08-17T08:19:03.020Z,32.62
2022-08-17T08:21:43.835Z,32.66
2022-08-17T08:24:33.088Z,32.70
2022-08-17T08:27:14.192Z,32.76
2022-08-17T08:29:54.211Z,32.85
2022-08-17T08:32:39.800Z,32.91
2022-08-17T08:35:15.140Z,32.94
2022-08-17T08:37:55.631Z,32.98
2022-08-17T08:40:44.123Z,33.02
2022-08-17T08:43:24.546Z,33.01
2022-08-17T08:46:01.866Z,33.00
2022-08-17T08:48:58.683Z,33.03
2022-08-17T08:51:43.962Z,33.06
2022-08-17T08:54:28.214Z,33.09
2022-08-17T08:57:24.439Z,33.18
2022-08-17T09:00:10.951Z,33.27
2022-08-17T09:03:10.942Z,33.38
2022-08-17T09:06:00.239Z,33.50
2022-08-17T09:08:34.032Z,33.50
2022-08-17T09:11:07.878Z,33.54
2022-08-17T09:13:54.357Z,33.63
2022-08-17T09:16:33.197Z,33.62
2022-08-17T09:19:10.996Z,33.63
2022-08-17T09:21:48.551Z,33.73
2022-08-17T09:24:25.652Z,33.83
2022-08-17T09:27:03.375Z,33.94
2022-08-17T09:29:39.207Z,34.01
2022-08-17T09:32:20.636Z,34.07
2022-08-17T09:34:54.906Z,34.14
2022-08-17T09:37:33.595Z,34.22
2022-08-17T09:40:14.321Z,34.29
2022-08-17T09:42:50.908Z,34.44
2022-08-17T09:45:33.116Z,34.61
2022-08-17T09:48:08.210Z,34.61
2022-08-17T09:50:55.271Z,34.39
2022-08-17T09:53:36.944Z,34.31
2022-08-17T09:56:24.030Z,34.29
2022-08-17T09:59:11.337Z,34.31
2022-08-17T10:01:50.590Z,34.33
2022-08-17T10:04:39.960Z,34.39
2022-08-17T10:07:19.432Z,34.54
2022-08-17T10:09:58.175Z,34.69
2022-08-17T10:12:38.203Z,34.87
2022-08-17T10:15:22.433Z,35.09
2022-08-17T10:18:20.086Z,35.21
2022-08-17T10:21:20.978Z,35.42
2022-08-17T10:24:16.252Z,35.56
2022-08-17T10:26:56.925Z,35.50
2022-08-17T10:29:49.200Z,35.36
2022-08-17T10:32:32.746Z,35.30
2022-08-17T10:35:26.057Z,35.28
2022-08-17T10:38:26.719Z,35.28
2022-08-17T10:41:04.722Z,35.33
2022-08-17T10:44:36.618Z,35.33
2022-08-17T10:46:59.562Z,35.42
2022-08-17T10:49:34.304Z,35.45
2022-08-17T10:52:30.538Z,35.44
2022-08-17T10:55:16.608Z,35.37
2022-08-17T10:57:49.565Z,35.38
2022-08-17T11:00:59.678Z,35.38
2022-08-17T11:03:32.974Z,35.34
2022-08-17T11:06:15.269Z,35.32
2022-08-17T11:09:05.067Z,35.28
2022-08-17T11:11:51.003Z,35.27
2022-08-17T11:14:48.275Z,35.24
2022-08-17T11:17:42.661Z,35.25
2022-08-17T11:20:30.060Z,35.23
2022-08-17T11:23:25.933Z,35.17
2022-08-17T11:26:03.965Z,35.15
2022-08-17T11:28:46.142Z,35.15
2022-08-17T11:31:38.837Z,35.15
2022-08-17T11:34:21.288Z,35.08
2022-08-17T11:37:19.288Z,35.08
2022-08-17T11:40:11.931Z,35.04
2022-08-17T11:42:58.739Z,34.94
2022-08-17T11:45:48.159Z,34.89
2022-08-17T11:48:46.672Z,34.86
2022-08-17T11:51:35.101Z,34.96
2022-08-17T11:57:23.321Z,35.06
2022-08-17T12:00:00.502Z,35.12
2022-08-17T12:02:38.889Z,34.94
2022-08-17T12:05:37.224Z,34.94
2022-08-17T12:08:19.772Z,34.99
2022-08-17T12:11:04.732Z,35.02
2022-08-17T12:13:43.258Z,35.05
2022-08-17T12:16:18.852Z,35.14
2022-08-17T12:18:58.101Z,35.22
2022-08-17T12:21:50.557Z,35.32
2022-08-17T12:24:38.329Z,35.41
2022-08-17T12:27:11.183Z,35.46
2022-08-17T12:29:47.000Z,35.45
2022-08-17T12:32:21.197Z,35.41
2022-08-17T12:34:53.882Z,35.37
2022-08-17T12:37:29.645Z,35.34
2022-08-17T12:40:03.094Z,35.27
2022-08-17T12:42:37.362Z,35.16
2022-08-17T12:45:21.938Z,35.01
2022-08-17T12:48:04.175Z,34.97
2022-08-17T12:50:35.346Z,34.98
2022-08-17T12:53:11.721Z,35.02
2022-08-17T12:55:43.082Z,35.07
2022-08-17T12:58:19.443Z,35.10
2022-08-17T13:00:56.490Z,35.00
2022-08-17T13:03:36.280Z,34.94
2022-08-17T13:06:10.035Z,34.97
2022-08-17T13:08:43.194Z,34.98
2022-08-17T13:11:25.339Z,35.01
2022-08-17T13:13:57.395Z,34.94
2022-08-17T13:16:33.451Z,34.72
2022-08-17T13:19:14.607Z,34.48
2022-08-17T13:21:49.985Z,34.40
2022-08-17T13:24:24.781Z,34.41
2022-08-17T13:27:08.513Z,34.44
2022-08-17T13:29:51.149Z,34.48
2022-08-17T13:32:33.427Z,34.44
2022-08-17T13:35:24.984Z,34.34
2022-08-17T13:38:02.929Z,34.20
2022-08-17T13:40:41.719Z,34.16
2022-08-17T13:43:13.297Z,34.17
2022-08-17T13:45:53.091Z,34.22
2022-08-17T13:48:28.874Z,34.30
2022-08-17T13:51:36.965Z,34.36
2022-08-17T13:54:24.379Z,34.47
2022-08-17T13:57:03.646Z,34.58
2022-08-17T13:59:54.908Z,34.64
2022-08-17T14:02:28.475Z,34.68
2022-08-17T14:05:02.127Z,34.62
2022-08-17T14:07:39.680Z,34.52
2022-08-17T14:10:14.775Z,34.42
2022-08-17T14:12:46.753Z,34.27
2022-08-17T14:15:20.785Z,34.11
2022-08-17T14:17:52.691Z,34.05
2022-08-17T14:20:24.641Z,34.02
2022-08-17T14:22:57.238Z,34.02
2022-08-17T14:25:30.256Z,33.98
2022-08-17T14:28:01.366Z,33.95
2022-08-17T14:30:34.471Z,33.93
2022-08-17T14:33:05.910Z,33.91
2022-08-17T14:35:37.295Z,33.89
2022-08-17T14:38:07.953Z,33.87
2022-08-17T14:40:39.832Z,33.87
2022-08-17T14:43:10.531Z,33.87
2022-08-17T14:45:41.286Z,33.83
2022-08-17T14:48:12.261Z,33.79
2022-08-17T14:50:44.370Z,33.68
2022-08-17T14:53:17.064Z,33.55
2022-08-17T14:55:48.710Z,33.47
2022-08-17T14:58:19.978Z,33.44
2022-08-17T15:00:51.397Z,33.37
2022-08-17T15:03:20.467Z,33.24
2022-08-17T15:05:51.133Z,33.21
2022-08-17T15:08:21.871Z,33.22
2022-08-17T15:10:54.361Z,33.22
2022-08-17T15:13:27.739Z,33.24
2022-08-17T15:15:59.935Z,33.20
2022-08-17T15:18:31.798Z,33.13
2022-08-17T15:21:03.892Z,33.05
2022-08-17T15:23:34.783Z,32.99
2022-08-17T15:26:06.219Z,33.00
2022-08-17T15:28:37.695Z,33.00
2022-08-17T15:31:08.533Z,33.00
2022-08-17T15:33:39.157Z,33.00
2022-08-17T15:36:11.333Z,32.98
2022-08-17T15:38:42.091Z,32.97
2022-08-17T15:41:19.262Z,32.94
2022-08-17T15:43:51.055Z,32.92
2022-08-17T15:46:23.300Z,32.88
2022-08-17T15:48:58.140Z,32.86
2022-08-17T15:51:31.729Z,32.83
2022-08-17T15:54:18.828Z,32.80
2022-08-17T15:56:53.584Z,32.77
2022-08-17T15:59:24.320Z,32.75
2022-08-17T16:03:14.373Z,32.72
2022-08-17T16:04:46.230Z,32.69
2022-08-17T16:07:26.490Z,32.66
2022-08-17T16:09:57.717Z,32.63
2022-08-17T16:12:28.747Z,32.59
2022-08-17T16:14:59.899Z,32.56
2022-08-17T16:17:40.331Z,32.53
2022-08-17T16:20:20.566Z,32.50
2022-08-17T16:22:52.962Z,32.46
2022-08-17T16:25:52.486Z,32.40
2022-08-17T16:28:30.834Z,32.31
2022-08-17T16:31:09.287Z,32.24
2022-08-17T16:33:40.712Z,32.20
2022-08-17T16:36:11.761Z,32.16
2022-08-17T16:38:42.524Z,32.13
2022-08-17T16:41:33.713Z,32.08
2022-08-17T16:44:05.492Z,32.00
2022-08-17T16:46:38.080Z,31.92
2022-08-17T16:49:09.095Z,31.83
2022-08-17T16:51:44.262Z,31.71
2022-08-17T16:54:17.654Z,31.59
2022-08-17T16:56:49.958Z,31.49
2022-08-17T16:59:30.017Z,31.39
2022-08-17T17:02:10.762Z,31.29
2022-08-17T17:04:47.481Z,31.18
2022-08-17T17:07:38.663Z,31.10
2022-08-17T17:10:13.819Z,30.99
2022-08-17T17:13:02.745Z,30.93
2022-08-17T17:15:46.543Z,30.85
2022-08-17T17:18:21.212Z,30.77
2022-08-17T17:20:57.776Z,30.68
2022-08-17T17:23:40.115Z,30.60
2022-08-17T17:26:27.307Z,30.51
2022-08-17T17:29:22.699Z,30.41
2022-08-17T17:31:57.494Z,30.30
2022-08-17T17:34:30.612Z,30.20
2022-08-17T17:37:08.855Z,30.10
2022-08-17T17:39:45.277Z,30.00
2022-08-17T17:42:20.710Z,29.91
2022-08-17T17:45:00.324Z,29.83
2022-08-17T17:47:31.703Z,29.75
2022-08-17T17:50:06.246Z,29.69
2022-08-17T17:52:47.590Z,29.64
2022-08-17T17:55:32.986Z,29.59
2022-08-17T17:58:26.608Z,29.55
2022-08-17T18:01:17.574Z,29.51
2022-08-17T18:04:03.145Z,29.46
2022-08-17T18:06:48.024Z,29.43
2022-08-17T18:09:34.123Z,29.38
2022-08-17T18:12:19.839Z,29.31
2022-08-17T18:15:10.229Z,29.25
2022-08-17T18:17:59.812Z,29.19
2022-08-17T18:20:43.194Z,29.13
2022-08-17T18:23:22.211Z,29.05
2022-08-17T18:26:01.304Z,28.99
2022-08-17T18:28:34.817Z,28.92
2022-08-17T18:31:16.933Z,28.87
2022-08-17T18:33:50.428Z,28.82
2022-08-17T18:36:32.231Z,28.76
2022-08-17T18:39:16.097Z,28.69
2022-08-17T18:41:49.670Z,28.64
2022-08-17T18:44:28.926Z,28.59
2022-08-17T18:47:14.414Z,28.52
2022-08-17T18:49:47.405Z,28.44
2022-08-17T18:52:26.069Z,28.35
2022-08-17T18:55:09.180Z,28.29
2022-08-17T18:57:44.236Z,28.23
2022-08-17T19:00:20.973Z,28.17
2022-08-17T19:02:58.059Z,28.11
2022-08-17T19:05:37.764Z,28.03
2022-08-17T19:08:24.170Z,27.97
2022-08-17T19:10:58.455Z,27.91
2022-08-17T19:13:33.056Z,27.87
2022-08-17T19:16:15.770Z,27.81
2022-08-17T19:18:52.010Z,27.76
2022-08-17T19:21:31.918Z,27.71
2022-08-17T19:24:10.753Z,27.67
2022-08-17T19:26:51.241Z,27.63
2022-08-17T19:29:34.386Z,27.59
2022-08-17T19:32:07.996Z,27.53
2022-08-17T19:34:43.010Z,27.48
2022-08-17T19:37:31.060Z,27.40
2022-08-17T19:40:10.225Z,27.32
2022-08-17T19:42:54.041Z,27.22
2022-08-17T19:45:40.122Z,27.12
2022-08-17T19:48:22.985Z,27.03
2022-08-17T19:50:58.891Z,26.93
2022-08-17T19:54:03.966Z,26.86
2022-08-17T19:56:37.882Z,26.80
2022-08-17T19:59:14.614Z,26.71
2022-08-17T20:01:50.137Z,26.65
2022-08-17T20:04:33.189Z,26.63
2022-08-17T20:07:09.173Z,26.61
2022-08-17T20:09:46.214Z,26.62
2022-08-17T20:12:21.747Z,26.62
2022-08-17T20:14:57.336Z,26.62
2022-08-17T20:17:31.931Z,26.60
2022-08-17T20:20:19.290Z,26.60
2022-08-17T20:22:58.499Z,26.58
2022-08-17T20:25:36.840Z,26.54
2022-08-17T20:28:24.960Z,26.51
2022-08-17T20:30:55.783Z,26.47
2022-08-17T20:33:29.833Z,26.45
2022-08-17T20:36:15.638Z,26.39
2022-08-17T20:38:50.414Z,26.32
2022-08-17T20:41:23.333Z,26.26
2022-08-17T20:44:05.882Z,26.23
2022-08-17T20:47:02.373Z,26.14
2022-08-17T20:49:50.575Z,26.03
2022-08-17T20:52:47.105Z,25.94
2022-08-17T20:55:53.203Z,25.90
2022-08-17T20:58:47.806Z,25.89
2022-08-17T21:01:35.103Z,25.85
2022-08-17T21:04:10.450Z,25.82
2022-08-17T21:07:29.079Z,25.78
2022-08-17T21:10:15.488Z,25.70
2022-08-17T21:12:49.031Z,25.55
2022-08-17T21:15:32.029Z,25.40
2022-08-17T21:18:12.467Z,25.27
2022-08-17T21:20:58.169Z,25.21
2022-08-17T21:23:48.185Z,25.19
2022-08-17T21:26:31.061Z,25.18
2022-08-17T21:29:32.592Z,25.18
2022-08-17T21:32:22.996Z,25.10
2022-08-17T21:35:30.031Z,25.05
2022-08-17T21:38:05.054Z,24.98
2022-08-17T21:40:36.711Z,24.93
2022-08-17T21:43:25.093Z,24.92
2022-08-17T21:46:05.370Z,24.88
2022-08-17T21:48:45.422Z,24.87
2022-08-17T21:51:23.450Z,24.88
2022-08-17T21:53:57.287Z,24.87
2022-08-17T21:56:31.767Z,24.85
2022-08-17T21:59:05.468Z,24.88
2022-08-17T22:01:38.605Z,24.92
2022-08-17T22:04:21.456Z,24.89
2022-08-17T22:06:57.234Z,24.87
2022-08-17T22:09:32.029Z,24.90
2022-08-17T22:12:06.730Z,24.92
2022-08-17T22:14:51.474Z,24.93
2022-08-17T22:17:25.473Z,24.92
2022-08-17T22:19:59.297Z,24.87
2022-08-17T22:22:33.582Z,24.88
2022-08-17T22:25:09.172Z,24.85
2022-08-17T22:27:54.523Z,24.83
2022-08-17T22:30:59.330Z,24.77
2022-08-17T22:33:40.779Z,24.71
2022-08-17T22:36:29.262Z,24.64
2022-08-17T22:39:02.434Z,24.53
2022-08-17T22:41:41.388Z,24.42
2022-08-17T22:44:23.253Z,24.37
2022-08-17T22:47:11.345Z,24.37
2022-08-17T22:49:54.132Z,24.43
2022-08-17T22:52:57.413Z,24.52
2022-08-17T22:55:46.582Z,24.56
2022-08-17T22:58:37.563Z,24.54
2022-08-17T23:01:25.968Z,24.50
2022-08-17T23:03:58.797Z,24.38
2022-08-17T23:06:30.359Z,24.25
2022-08-17T23:09:03.446Z,24.15
2022-08-17T23:11:49.442Z,24.10
2022-08-17T23:14:22.731Z,24.11
2022-08-17T23:16:53.826Z,24.12
2022-08-17T23:19:24.994Z,24.14
2022-08-17T23:21:56.885Z,24.08
2022-08-17T23:24:29.794Z,24.01
2022-08-17T23:27:00.550Z,23.91
2022-08-17T23:29:31.534Z,23.92
2022-08-17T23:32:04.805Z,24.00
2022-08-17T23:34:37.860Z,24.07
2022-08-17T23:37:10.255Z,24.12
2022-08-17T23:39:41.459Z,24.02
2022-08-17T23:42:16.095Z,23.91
2022-08-17T23:44:46.766Z,23.86
2022-08-17T23:47:17.925Z,23.84
2022-08-17T23:49:48.574Z,23.79
2022-08-17T23:52:27.947Z,23.67
2022-08-17T23:54:58.835Z,23.55
2022-08-17T23:57:33.490Z,23.47
